Banff, Canada
Current Conditions -  °F | °C
As of 5:00 PM on Friday 24 Oct 2014 (Local Time) from CYBW Reporting Station
Clear Clear  
Wind Chill: 40°   Ceiling: Unl
Heat Index: 48°   Visibility: 9mi
Dew Point: 14°   Wind: 24mph
Humidity: 25%   Direction: 280°W
Pressure: 29.95"   Gusts: 32mph
Location:  51.18°N, 115.57°W
Report Text: CYBW 242300Z AUTO 28021G28KT 9SM CLR 09/M10 A2995 RMK SLP175 DENSITY ALT 4000FT
Loading
Personal Weather Stations






























Interactive Weather Map
Tropical Storm Tracking
New forecast layout! Learn more

10-Day Weather Forecast

Advertisements
Track Severe Weather on mobile